Time;durP1;ratioP1;P1;durP2;ratioP2;P2;SDS_P1;SDS_P2;PMS_P1;PMS_P2;Temp;Humidity;BMP_temperature;BMP_pressure;BME280_temperature;BME280_humidity;BME280_pressure;Samples;Min_cycle;Max_cycle;Signal;HPM_P1;HPM_P2
2023/11/18 00:08:56;;;;;;;6.5;3.7;;;;;;;3.53;85.54;;;;;
2023/11/18 00:18:58;;;;;;;6.5;3.7;;;;;;;3.47;85.89;;;;;
2023/11/18 00:29:56;;;;;;;7.3;4;;;;;;;3.32;86.43;;;;;
2023/11/18 00:40:56;;;;;;;7.3;4;;;;;;;3.37;86.97;;;;;
2023/11/18 00:50:56;;;;;;;7.3;4;;;;;;;3.45;86.82;;;;;
2023/11/18 01:00:56;;;;;;;9.1;6.1;;;;;;;3.27;87.29;;;;;
2023/11/18 01:11:56;;;;;;;9.1;6.1;;;;;;;3.24;87.08;;;;;
2023/11/18 01:21:56;;;;;;;9.1;6.1;;;;;;;3.36;87.59;;;;;
2023/11/18 01:32:56;;;;;;;9.2;4.8;;;;;;;3.45;87.39;;;;;
2023/11/18 01:42:56;;;;;;;9.2;4.8;;;;;;;3.42;87.67;;;;;
2023/11/18 01:52:56;;;;;;;9.2;4.8;;;;;;;3.49;87.82;;;;;
2023/11/18 02:02:56;;;;;;;10.1;5.5;;;;;;;3.53;88.17;;;;;
2023/11/18 02:13:58;;;;;;;10.1;5.5;;;;;;;3.73;87.8;;;;;
2023/11/18 02:24:57;;;;;;;10.1;5.5;;;;;;;3.82;87.69;;;;;
2023/11/18 02:34:57;;;;;;;13.2;6.9;;;;;;;3.8;88.02;;;;;
2023/11/18 02:45:56;;;;;;;13.2;6.9;;;;;;;3.9;88.04;;;;;
2023/11/18 02:56:56;;;;;;;13.2;6.9;;;;;;;3.93;87.97;;;;;
2023/11/18 03:07:57;;;;;;;11.6;6.5;;;;;;;3.94;88.16;;;;;
2023/11/18 03:17:56;;;;;;;11.6;6.5;;;;;;;3.94;87.94;;;;;
2023/11/18 03:28:56;;;;;;;10.8;6.1;;;;;;;4;87.86;;;;;
2023/11/18 03:39:56;;;;;;;10.8;6.1;;;;;;;3.91;87.56;;;;;
2023/11/18 03:50:56;;;;;;;10.8;6.1;;;;;;;3.96;87.53;;;;;
2023/11/18 04:00:57;;;;;;;10.6;6.1;;;;;;;4.04;87.27;;;;;
2023/11/18 04:10:58;;;;;;;10.6;6.1;;;;;;;3.95;87.74;;;;;
2023/11/18 04:21:56;;;;;;;10.6;6.1;;;;;;;3.99;87.83;;;;;
2023/11/18 04:32:57;;;;;;;9.4;5.6;;;;;;;3.95;88.61;;;;;
2023/11/18 04:42:57;;;;;;;9.4;5.6;;;;;;;3.89;88.28;;;;;
2023/11/18 04:53:57;;;;;;;9.4;5.6;;;;;;;3.87;88.3;;;;;
2023/11/18 05:04:57;;;;;;;8.8;5;;;;;;;3.78;88.41;;;;;
2023/11/18 05:14:57;;;;;;;8.8;5;;;;;;;3.62;88.1;;;;;
2023/11/18 05:25:57;;;;;;;8.8;5;;;;;;;3.69;87.65;;;;;
2023/11/18 05:35:57;;;;;;;6.6;3.9;;;;;;;3.69;87.65;;;;;
2023/11/18 05:46:14;;;;;;;6.6;3.9;;;;;;;3.75;87.72;;;;;
2023/11/18 05:56:59;;;;;;;6.6;3.9;;;;;;;3.81;87.57;;;;;
2023/11/18 06:06:56;;;;;;;7.3;3.5;;;;;;;3.84;87.68;;;;;
2023/11/18 06:16:57;;;;;;;7.3;3.5;;;;;;;3.88;87.88;;;;;
2023/11/18 06:26:57;;;;;;;7.3;3.5;;;;;;;3.99;87.74;;;;;
2023/11/18 06:36:57;;;;;;;10.6;5.2;;;;;;;3.93;87.77;;;;;
2023/11/18 06:46:57;;;;;;;10.6;5.2;;;;;;;4.05;87.39;;;;;
2023/11/18 06:56:57;;;;;;;10.6;5.2;;;;;;;4;87.84;;;;;
2023/11/18 07:07:57;;;;;;;8.6;4.6;;;;;;;4.1;87.75;;;;;
2023/11/18 07:18:57;;;;;;;8.6;4.6;;;;;;;4.16;87.93;;;;;
2023/11/18 07:29:58;;;;;;;7.2;4.8;;;;;;;4.13;88.28;;;;;
2023/11/18 07:40:00;;;;;;;7.2;4.8;;;;;;;4.18;86.57;;;;;
2023/11/18 07:49:57;;;;;;;7.2;4.8;;;;;;;4.35;84.94;;;;;
2023/11/18 07:59:57;;;;;;;3.9;2;;;;;;;4.33;83.77;;;;;
2023/11/18 08:10:58;;;;;;;3.9;2;;;;;;;4.34;83.35;;;;;
2023/11/18 08:21:58;;;;;;;3.9;2;;;;;;;4.05;82.88;;;;;
2023/11/18 08:32:58;;;;;;;4.5;1.8;;;;;;;4.29;81.76;;;;;
2023/11/18 08:42:57;;;;;;;4.5;1.8;;;;;;;4.47;81.84;;;;;
2023/11/18 08:53:58;;;;;;;4.5;1.8;;;;;;;4.78;80.03;;;;;
2023/11/18 09:03:57;;;;;;;5.8;3;;;;;;;4.63;80.79;;;;;
2023/11/18 09:14:57;;;;;;;5.8;3;;;;;;;4.25;82.65;;;;;
2023/11/18 09:24:57;;;;;;;5.8;3;;;;;;;4.24;83.65;;;;;
2023/11/18 09:35:58;;;;;;;7.8;4;;;;;;;4.1;83.52;;;;;
2023/11/18 09:47:04;;;;;;;7.8;4;;;;;;;3.74;85.11;;;;;
2023/11/18 09:57:57;;;;;;;8.6;4;;;;;;;3.69;86.44;;;;;
2023/11/18 10:08:57;;;;;;;8.6;4;;;;;;;3.55;87.03;;;;;
2023/11/18 10:19:00;;;;;;;8.6;4;;;;;;;3.08;87.35;;;;;
2023/11/18 10:29:57;;;;;;;6.4;4.5;;;;;;;2.78;86.31;;;;;
2023/11/18 10:39:57;;;;;;;6.4;4.5;;;;;;;2.75;86.68;;;;;
2023/11/18 10:50:59;;;;;;;6.4;4.5;;;;;;;2.7;85.84;;;;;
2023/11/18 11:01:57;;;;;;;6.7;4.1;;;;;;;2.67;84.07;;;;;
2023/11/18 11:12:57;;;;;;;6.7;4.1;;;;;;;2.59;83.11;;;;;
2023/11/18 11:22:58;;;;;;;6.7;4.1;;;;;;;2.48;82.19;;;;;
2023/11/18 11:33:58;;;;;;;7;4.5;;;;;;;2.4;81.25;;;;;
2023/11/18 11:44:58;;;;;;;7;4.5;;;;;;;2.42;80.46;;;;;
2023/11/18 11:56:05;;;;;;;7;4.5;;;;;;;2.54;81.08;;;;;
2023/11/18 12:06:07;;;;;;;6.2;3.5;;;;;;;2.49;80.96;;;;;
2023/11/18 12:15:57;;;;;;;6.2;3.5;;;;;;;2.64;82.27;;;;;
2023/11/18 12:25:57;;;;;;;6.2;3.5;;;;;;;2.68;82.52;;;;;
2023/11/18 12:35:59;;;;;;;7.2;4.2;;;;;;;2.64;81.38;;;;;
2023/11/18 12:46:00;;;;;;;7.2;4.2;;;;;;;2.48;81.2;;;;;
2023/11/18 12:56:57;;;;;;;9;4.4;;;;;;;2.42;81.02;;;;;
2023/11/18 13:06:57;;;;;;;9;4.4;;;;;;;2.48;80.39;;;;;
2023/11/18 13:17:57;;;;;;;9;4.4;;;;;;;2.49;81.62;;;;;
2023/11/18 13:28:57;;;;;;;8.1;4.5;;;;;;;2.39;79.49;;;;;
2023/11/18 13:38:57;;;;;;;8.1;4.5;;;;;;;2.43;80.25;;;;;
2023/11/18 13:49:58;;;;;;;8.1;4.5;;;;;;;2.47;79.69;;;;;
2023/11/18 14:00:57;;;;;;;8.7;4;;;;;;;2.47;80.51;;;;;
2023/11/18 14:11:57;;;;;;;8.7;4;;;;;;;2.55;81.38;;;;;
2023/11/18 14:22:58;;;;;;;8.7;4;;;;;;;2.52;81.68;;;;;
2023/11/18 14:26:59;;;;;;;11.9;6;;;;;;;2.43;81.19;;;;;
2023/11/18 14:33:03;;;;;;;11.9;6;;;;;;;2.46;81.3;;;;;
2023/11/18 14:43:02;;;;;;;11.9;6;;;;;;;2.4;81.59;;;;;
2023/11/18 14:53:02;;;;;;;11.9;6;;;;;;;2.46;81.51;;;;;
2023/11/18 15:03:02;;;;;;;9.8;5;;;;;;;2.38;80.95;;;;;
2023/11/18 15:14:03;;;;;;;9.8;5;;;;;;;2.13;80.79;;;;;
2023/11/18 15:25:02;;;;;;;9.8;5;;;;;;;2.02;81.21;;;;;
2023/11/18 15:36:02;;;;;;;7.6;4.9;;;;;;;2.07;80.54;;;;;
2023/11/18 15:46:05;;;;;;;7.6;4.9;;;;;;;1.98;80.95;;;;;
2023/11/18 15:56:04;;;;;;;7.6;4.9;;;;;;;2.02;81.87;;;;;
2023/11/18 16:07:02;;;;;;;7;4.2;;;;;;;2.09;81.97;;;;;
2023/11/18 16:17:02;;;;;;;7;4.2;;;;;;;2.05;81.48;;;;;
2023/11/18 16:28:02;;;;;;;10.8;6.5;;;;;;;2.08;82.03;;;;;
2023/11/18 16:39:02;;;;;;;10.8;6.5;;;;;;;2.13;80.89;;;;;
2023/11/18 16:50:03;;;;;;;10.8;6.5;;;;;;;2.28;81.19;;;;;
2023/11/18 17:01:04;;;;;;;11.5;6.7;;;;;;;2.25;81.55;;;;;
2023/11/18 17:12:02;;;;;;;11.5;6.7;;;;;;;2.34;81.71;;;;;
2023/11/18 17:23:02;;;;;;;11.5;6.7;;;;;;;2.44;81.78;;;;;
2023/11/18 17:34:02;;;;;;;10.6;6.7;;;;;;;2.39;81.4;;;;;
2023/11/18 17:44:02;;;;;;;10.6;6.7;;;;;;;2.3;81.9;;;;;
2023/11/18 17:54:02;;;;;;;10.6;6.7;;;;;;;2.31;81.76;;;;;
2023/11/18 18:04:02;;;;;;;10.6;5.6;;;;;;;2.46;81.45;;;;;
2023/11/18 18:15:04;;;;;;;10.6;5.6;;;;;;;2.43;81.58;;;;;
2023/11/18 18:25:02;;;;;;;10.6;5.6;;;;;;;2.42;81.48;;;;;
2023/11/18 18:35:02;;;;;;;11.1;6.9;;;;;;;2.28;81.87;;;;;
2023/11/18 18:46:03;;;;;;;11.1;6.9;;;;;;;2.34;81.77;;;;;
2023/11/18 18:57:04;;;;;;;11.6;6.1;;;;;;;2.43;81.74;;;;;
2023/11/18 19:08:02;;;;;;;11.6;6.1;;;;;;;2.4;81.61;;;;;
2023/11/18 19:19:02;;;;;;;11.6;6.1;;;;;;;2.48;81.84;;;;;
2023/11/18 19:30:04;;;;;;;10.1;6.2;;;;;;;2.37;81.72;;;;;
2023/11/18 19:40:05;;;;;;;10.1;6.2;;;;;;;2.43;81.76;;;;;
2023/11/18 19:50:03;;;;;;;10.1;6.2;;;;;;;2.45;81.96;;;;;
2023/11/18 20:01:02;;;;;;;10.3;6;;;;;;;2.4;82.02;;;;;
2023/11/18 20:11:03;;;;;;;10.3;6;;;;;;;2.52;82.49;;;;;
2023/11/18 20:22:02;;;;;;;10.3;6;;;;;;;2.44;83.07;;;;;
2023/11/18 20:32:02;;;;;;;14;7.6;;;;;;;2.42;83.26;;;;;
2023/11/18 20:43:02;;;;;;;14;7.6;;;;;;;2.46;83.49;;;;;
2023/11/18 20:53:03;;;;;;;14;7.6;;;;;;;2.54;83.32;;;;;
2023/11/18 21:04:02;;;;;;;15.4;8.4;;;;;;;2.54;83.96;;;;;
2023/11/18 21:15:04;;;;;;;15.4;8.4;;;;;;;2.59;84.2;;;;;
2023/11/18 21:25:05;;;;;;;15.4;8.4;;;;;;;2.65;84.22;;;;;
2023/11/18 21:35:02;;;;;;;17.1;9;;;;;;;2.55;84.51;;;;;
2023/11/18 21:46:02;;;;;;;17.1;9;;;;;;;2.55;84.68;;;;;
2023/11/18 21:57:02;;;;;;;18.6;8.2;;;;;;;2.57;83.73;;;;;
2023/11/18 22:08:02;;;;;;;18.6;8.2;;;;;;;2.53;83.71;;;;;
2023/11/18 22:18:02;;;;;;;18.6;8.2;;;;;;;2.47;83.89;;;;;
2023/11/18 22:29:02;;;;;;;13.7;7.7;;;;;;;2.55;83.62;;;;;
2023/11/18 22:40:08;;;;;;;13.7;7.7;;;;;;;2.66;83.61;;;;;
2023/11/18 22:51:03;;;;;;;13.7;7.7;;;;;;;2.72;83.38;;;;;
2023/11/18 23:02:03;;;;;;;15.7;8.8;;;;;;;2.75;83.03;;;;;
2023/11/18 23:12:05;;;;;;;15.7;8.8;;;;;;;2.68;83.13;;;;;
2023/11/18 23:22:06;;;;;;;15.7;8.8;;;;;;;2.76;83.13;;;;;
2023/11/18 23:33:04;;;;;;;14;7.5;;;;;;;2.71;83.31;;;;;
2023/11/18 23:44:06;;;;;;;14;7.5;;;;;;;2.79;83.48;;;;;
2023/11/18 23:54:03;;;;;;;14;7.5;;;;;;;2.8;83.74;;;;;
